Terminal Aerodrome Forecast
Issued by NWS

Current Version | Previous Version | Text Only | Print | Product List | Glossary Off
Versions: 1 2 3 4 5 6 7 8 9 10 11 12 13 14 15 16 17 18 19 20 21 22

000
FTUS41 KILN 232000 AAA
TAFLUK
TAF AMD
KLUK 232057Z 2321/2418 VRB03KT P6SM BKN100
     FM232300 35004KT P6SM OVC070
     FM240600 30006KT P6SM BKN025
     FM241500 24010G18KT P6SM BKN100=

USA.gov is the U.S. government's official web portal to all federal, state and local government web resources and services.